sensor_id;sensor_type;location;lat;lon;timestamp;P1;durP1;ratioP1;P2;durP2;ratioP2
37239;SDS011;23130;48.760;9.178;2023-03-01T00:01:22;23.77;;;12.15;;
37239;SDS011;23130;48.760;9.178;2023-03-01T00:03:49;24.95;;;12.32;;
37239;SDS011;23130;48.760;9.178;2023-03-01T00:06:15;22.02;;;12.40;;
37239;SDS011;23130;48.760;9.178;2023-03-01T00:08:41;21.60;;;11.73;;
37239;SDS011;23130;48.760;9.178;2023-03-01T00:11:12;21.52;;;12.35;;
37239;SDS011;23130;48.760;9.178;2023-03-01T00:13:42;25.20;;;11.93;;
37239;SDS011;23130;48.760;9.178;2023-03-01T00:16:10;21.17;;;11.88;;
37239;SDS011;23130;48.760;9.178;2023-03-01T00:18:38;22.52;;;11.73;;
37239;SDS011;23130;48.760;9.178;2023-03-01T00:21:04;26.40;;;13.30;;
37239;SDS011;23130;48.760;9.178;2023-03-01T00:23:30;25.33;;;13.15;;
37239;SDS011;23130;48.760;9.178;2023-03-01T00:25:56;24.23;;;12.27;;
37239;SDS011;23130;48.760;9.178;2023-03-01T00:28:21;22.60;;;11.85;;
37239;SDS011;23130;48.760;9.178;2023-03-01T00:30:47;22.38;;;12.02;;
37239;SDS011;23130;48.760;9.178;2023-03-01T00:33:13;25.17;;;12.60;;
37239;SDS011;23130;48.760;9.178;2023-03-01T00:35:38;20.77;;;11.43;;
37239;SDS011;23130;48.760;9.178;2023-03-01T00:38:04;20.75;;;11.13;;
37239;SDS011;23130;48.760;9.178;2023-03-01T00:40:32;23.27;;;12.75;;
37239;SDS011;23130;48.760;9.178;2023-03-01T00:42:58;18.27;;;11.48;;
37239;SDS011;23130;48.760;9.178;2023-03-01T00:45:24;23.27;;;12.52;;
37239;SDS011;23130;48.760;9.178;2023-03-01T00:47:50;22.65;;;11.75;;
37239;SDS011;23130;48.760;9.178;2023-03-01T00:50:16;24.73;;;11.32;;
37239;SDS011;23130;48.760;9.178;2023-03-01T00:52:43;25.30;;;12.10;;
37239;SDS011;23130;48.760;9.178;2023-03-01T00:55:09;21.27;;;10.95;;
37239;SDS011;23130;48.760;9.178;2023-03-01T00:57:34;21.15;;;11.90;;
37239;SDS011;23130;48.760;9.178;2023-03-01T01:00:00;30.88;;;12.85;;
37239;SDS011;23130;48.760;9.178;2023-03-01T01:02:26;22.85;;;12.73;;
37239;SDS011;23130;48.760;9.178;2023-03-01T01:04:51;22.75;;;12.43;;
37239;SDS011;23130;48.760;9.178;2023-03-01T01:07:17;27.88;;;14.35;;
37239;SDS011;23130;48.760;9.178;2023-03-01T01:09:45;23.98;;;12.60;;
37239;SDS011;23130;48.760;9.178;2023-03-01T01:12:10;25.58;;;14.02;;
37239;SDS011;23130;48.760;9.178;2023-03-01T01:14:36;27.42;;;12.82;;
37239;SDS011;23130;48.760;9.178;2023-03-01T01:17:02;25.15;;;12.23;;
37239;SDS011;23130;48.760;9.178;2023-03-01T01:19:28;32.03;;;13.90;;
37239;SDS011;23130;48.760;9.178;2023-03-01T01:21:53;25.90;;;14.32;;
37239;SDS011;23130;48.760;9.178;2023-03-01T01:24:19;21.83;;;12.15;;
37239;SDS011;23130;48.760;9.178;2023-03-01T01:26:45;26.90;;;12.88;;
37239;SDS011;23130;48.760;9.178;2023-03-01T01:29:11;23.52;;;13.00;;
37239;SDS011;23130;48.760;9.178;2023-03-01T01:31:37;26.88;;;14.20;;
37239;SDS011;23130;48.760;9.178;2023-03-01T01:34:06;23.73;;;13.07;;
37239;SDS011;23130;48.760;9.178;2023-03-01T01:36:33;23.63;;;12.98;;
37239;SDS011;23130;48.760;9.178;2023-03-01T01:38:59;24.52;;;12.68;;
37239;SDS011;23130;48.760;9.178;2023-03-01T01:41:25;25.25;;;12.90;;
37239;SDS011;23130;48.760;9.178;2023-03-01T01:44:09;23.23;;;13.20;;
37239;SDS011;23130;48.760;9.178;2023-03-01T01:46:53;23.20;;;11.88;;
37239;SDS011;23130;48.760;9.178;2023-03-01T01:52:19;23.02;;;12.85;;
37239;SDS011;23130;48.760;9.178;2023-03-01T01:57:32;23.60;;;12.32;;
37239;SDS011;23130;48.760;9.178;2023-03-01T02:00:08;20.25;;;11.85;;
37239;SDS011;23130;48.760;9.178;2023-03-01T02:02:39;24.25;;;12.13;;
37239;SDS011;23130;48.760;9.178;2023-03-01T02:08:05;25.95;;;12.57;;
37239;SDS011;23130;48.760;9.178;2023-03-01T02:10:32;26.05;;;13.13;;
37239;SDS011;23130;48.760;9.178;2023-03-01T02:13:00;23.15;;;11.48;;
37239;SDS011;23130;48.760;9.178;2023-03-01T02:15:26;25.95;;;12.98;;
37239;SDS011;23130;48.760;9.178;2023-03-01T02:17:52;23.90;;;12.50;;
37239;SDS011;23130;48.760;9.178;2023-03-01T02:23:38;20.75;;;12.25;;
37239;SDS011;23130;48.760;9.178;2023-03-01T02:29:01;22.52;;;12.35;;
37239;SDS011;23130;48.760;9.178;2023-03-01T02:31:27;22.65;;;12.50;;
37239;SDS011;23130;48.760;9.178;2023-03-01T02:34:09;23.48;;;11.63;;
37239;SDS011;23130;48.760;9.178;2023-03-01T02:36:38;26.92;;;12.57;;
37239;SDS011;23130;48.760;9.178;2023-03-01T02:39:07;26.80;;;12.45;;
37239;SDS011;23130;48.760;9.178;2023-03-01T02:41:39;23.90;;;13.15;;
37239;SDS011;23130;48.760;9.178;2023-03-01T02:44:07;26.33;;;13.35;;
37239;SDS011;23130;48.760;9.178;2023-03-01T02:46:33;21.27;;;13.05;;
37239;SDS011;23130;48.760;9.178;2023-03-01T02:49:22;24.40;;;13.13;;
37239;SDS011;23130;48.760;9.178;2023-03-01T02:51:55;23.13;;;12.38;;
37239;SDS011;23130;48.760;9.178;2023-03-01T02:57:19;26.67;;;13.48;;
37239;SDS011;23130;48.760;9.178;2023-03-01T02:59:46;21.30;;;12.73;;
37239;SDS011;23130;48.760;9.178;2023-03-01T03:02:20;26.83;;;13.18;;
37239;SDS011;23130;48.760;9.178;2023-03-01T03:05:04;22.52;;;13.45;;
37239;SDS011;23130;48.760;9.178;2023-03-01T03:07:33;24.52;;;13.00;;
37239;SDS011;23130;48.760;9.178;2023-03-01T03:10:00;28.60;;;13.68;;
37239;SDS011;23130;48.760;9.178;2023-03-01T03:12:28;23.98;;;13.07;;
37239;SDS011;23130;48.760;9.178;2023-03-01T03:14:53;22.67;;;12.95;;
37239;SDS011;23130;48.760;9.178;2023-03-01T03:17:19;22.67;;;12.60;;
37239;SDS011;23130;48.760;9.178;2023-03-01T03:19:44;25.50;;;12.63;;
37239;SDS011;23130;48.760;9.178;2023-03-01T03:22:10;20.33;;;11.98;;
37239;SDS011;23130;48.760;9.178;2023-03-01T03:24:36;22.35;;;12.75;;
37239;SDS011;23130;48.760;9.178;2023-03-01T03:27:03;25.30;;;13.38;;
37239;SDS011;23130;48.760;9.178;2023-03-01T03:29:29;26.42;;;13.80;;
37239;SDS011;23130;48.760;9.178;2023-03-01T03:31:55;25.02;;;13.15;;
37239;SDS011;23130;48.760;9.178;2023-03-01T03:34:21;29.25;;;13.55;;
37239;SDS011;23130;48.760;9.178;2023-03-01T03:36:46;23.48;;;12.48;;
37239;SDS011;23130;48.760;9.178;2023-03-01T03:39:12;27.00;;;14.00;;
37239;SDS011;23130;48.760;9.178;2023-03-01T03:41:37;24.17;;;12.73;;
37239;SDS011;23130;48.760;9.178;2023-03-01T03:44:03;24.35;;;13.25;;
37239;SDS011;23130;48.760;9.178;2023-03-01T03:46:29;25.52;;;12.95;;
37239;SDS011;23130;48.760;9.178;2023-03-01T03:48:55;24.13;;;12.98;;
37239;SDS011;23130;48.760;9.178;2023-03-01T03:51:20;27.13;;;14.43;;
37239;SDS011;23130;48.760;9.178;2023-03-01T03:53:47;24.52;;;12.32;;
37239;SDS011;23130;48.760;9.178;2023-03-01T03:56:13;28.08;;;13.93;;
37239;SDS011;23130;48.760;9.178;2023-03-01T03:58:39;26.23;;;13.52;;
37239;SDS011;23130;48.760;9.178;2023-03-01T04:01:05;27.20;;;13.60;;
37239;SDS011;23130;48.760;9.178;2023-03-01T04:03:31;25.80;;;13.73;;
37239;SDS011;23130;48.760;9.178;2023-03-01T04:05:58;26.98;;;14.05;;
37239;SDS011;23130;48.760;9.178;2023-03-01T04:08:25;27.73;;;13.25;;
37239;SDS011;23130;48.760;9.178;2023-03-01T04:10:55;28.45;;;13.30;;
37239;SDS011;23130;48.760;9.178;2023-03-01T04:13:23;26.98;;;12.88;;
37239;SDS011;23130;48.760;9.178;2023-03-01T04:15:50;25.92;;;13.30;;
37239;SDS011;23130;48.760;9.178;2023-03-01T04:18:17;26.77;;;13.82;;
37239;SDS011;23130;48.760;9.178;2023-03-01T04:20:44;24.77;;;12.25;;
37239;SDS011;23130;48.760;9.178;2023-03-01T04:23:17;22.73;;;12.63;;
37239;SDS011;23130;48.760;9.178;2023-03-01T04:28:21;23.45;;;12.35;;
37239;SDS011;23130;48.760;9.178;2023-03-01T04:30:51;23.80;;;13.25;;
37239;SDS011;23130;48.760;9.178;2023-03-01T04:33:18;24.80;;;13.68;;
37239;SDS011;23130;48.760;9.178;2023-03-01T04:35:43;29.25;;;15.30;;
37239;SDS011;23130;48.760;9.178;2023-03-01T04:38:09;25.63;;;13.23;;
37239;SDS011;23130;48.760;9.178;2023-03-01T04:40:35;25.70;;;14.18;;
37239;SDS011;23130;48.760;9.178;2023-03-01T04:43:02;26.25;;;13.90;;
37239;SDS011;23130;48.760;9.178;2023-03-01T04:45:28;26.63;;;13.75;;
37239;SDS011;23130;48.760;9.178;2023-03-01T04:47:53;24.10;;;14.07;;
37239;SDS011;23130;48.760;9.178;2023-03-01T04:50:19;25.27;;;13.68;;
37239;SDS011;23130;48.760;9.178;2023-03-01T04:52:47;21.77;;;12.88;;
37239;SDS011;23130;48.760;9.178;2023-03-01T04:55:12;23.17;;;12.70;;
37239;SDS011;23130;48.760;9.178;2023-03-01T04:57:38;24.90;;;12.35;;
37239;SDS011;23130;48.760;9.178;2023-03-01T05:00:06;26.25;;;13.68;;
37239;SDS011;23130;48.760;9.178;2023-03-01T05:02:55;24.30;;;13.38;;
37239;SDS011;23130;48.760;9.178;2023-03-01T05:05:30;25.08;;;12.75;;
37239;SDS011;23130;48.760;9.178;2023-03-01T05:07:59;21.38;;;12.30;;
37239;SDS011;23130;48.760;9.178;2023-03-01T05:10:27;25.58;;;13.20;;
37239;SDS011;23130;48.760;9.178;2023-03-01T05:12:54;30.08;;;13.82;;
37239;SDS011;23130;48.760;9.178;2023-03-01T05:15:24;24.58;;;13.50;;
37239;SDS011;23130;48.760;9.178;2023-03-01T05:17:51;26.30;;;13.35;;
37239;SDS011;23130;48.760;9.178;2023-03-01T05:20:17;26.00;;;13.55;;
37239;SDS011;23130;48.760;9.178;2023-03-01T05:22:47;29.27;;;14.73;;
37239;SDS011;23130;48.760;9.178;2023-03-01T05:25:13;28.25;;;14.82;;
37239;SDS011;23130;48.760;9.178;2023-03-01T05:27:39;25.85;;;13.98;;
37239;SDS011;23130;48.760;9.178;2023-03-01T05:30:05;26.95;;;14.57;;
37239;SDS011;23130;48.760;9.178;2023-03-01T05:32:41;26.45;;;14.73;;
37239;SDS011;23130;48.760;9.178;2023-03-01T05:35:12;25.33;;;13.98;;
37239;SDS011;23130;48.760;9.178;2023-03-01T05:37:40;26.67;;;15.48;;
37239;SDS011;23130;48.760;9.178;2023-03-01T05:40:07;28.27;;;14.73;;
37239;SDS011;23130;48.760;9.178;2023-03-01T05:42:40;27.40;;;14.10;;
37239;SDS011;23130;48.760;9.178;2023-03-01T05:45:07;28.02;;;14.65;;
37239;SDS011;23130;48.760;9.178;2023-03-01T05:47:34;25.65;;;12.90;;
37239;SDS011;23130;48.760;9.178;2023-03-01T05:50:00;29.30;;;13.90;;
37239;SDS011;23130;48.760;9.178;2023-03-01T05:52:26;26.13;;;14.75;;
37239;SDS011;23130;48.760;9.178;2023-03-01T05:54:52;23.02;;;13.98;;
37239;SDS011;23130;48.760;9.178;2023-03-01T05:57:17;28.85;;;14.55;;
37239;SDS011;23130;48.760;9.178;2023-03-01T05:59:43;23.88;;;13.30;;
37239;SDS011;23130;48.760;9.178;2023-03-01T06:02:08;27.80;;;15.55;;
37239;SDS011;23130;48.760;9.178;2023-03-01T06:04:34;27.05;;;14.20;;
37239;SDS011;23130;48.760;9.178;2023-03-01T06:07:00;29.65;;;15.93;;
37239;SDS011;23130;48.760;9.178;2023-03-01T06:09:25;25.23;;;13.48;;
37239;SDS011;23130;48.760;9.178;2023-03-01T06:11:51;25.63;;;14.32;;
37239;SDS011;23130;48.760;9.178;2023-03-01T06:14:16;23.92;;;14.63;;
37239;SDS011;23130;48.760;9.178;2023-03-01T06:16:42;27.95;;;14.25;;
37239;SDS011;23130;48.760;9.178;2023-03-01T06:19:08;29.77;;;14.00;;
37239;SDS011;23130;48.760;9.178;2023-03-01T06:21:33;28.33;;;14.90;;
37239;SDS011;23130;48.760;9.178;2023-03-01T06:23:59;26.45;;;14.77;;
37239;SDS011;23130;48.760;9.178;2023-03-01T06:26:25;29.15;;;15.57;;
37239;SDS011;23130;48.760;9.178;2023-03-01T06:28:51;29.50;;;15.13;;
37239;SDS011;23130;48.760;9.178;2023-03-01T06:31:16;31.60;;;14.45;;
37239;SDS011;23130;48.760;9.178;2023-03-01T06:33:42;27.63;;;14.82;;
37239;SDS011;23130;48.760;9.178;2023-03-01T06:36:09;34.08;;;13.75;;
37239;SDS011;23130;48.760;9.178;2023-03-01T06:38:35;21.92;;;13.13;;
37239;SDS011;23130;48.760;9.178;2023-03-01T06:41:01;26.77;;;14.27;;
37239;SDS011;23130;48.760;9.178;2023-03-01T06:43:26;30.55;;;15.23;;
37239;SDS011;23130;48.760;9.178;2023-03-01T06:45:52;27.33;;;14.75;;
37239;SDS011;23130;48.760;9.178;2023-03-01T06:48:17;27.70;;;15.20;;
37239;SDS011;23130;48.760;9.178;2023-03-01T06:50:43;26.52;;;12.95;;
37239;SDS011;23130;48.760;9.178;2023-03-01T06:53:09;27.63;;;13.88;;
37239;SDS011;23130;48.760;9.178;2023-03-01T06:55:34;26.40;;;13.55;;
37239;SDS011;23130;48.760;9.178;2023-03-01T06:58:01;29.05;;;14.68;;
37239;SDS011;23130;48.760;9.178;2023-03-01T07:00:27;23.17;;;14.50;;
37239;SDS011;23130;48.760;9.178;2023-03-01T07:02:53;25.90;;;14.60;;
37239;SDS011;23130;48.760;9.178;2023-03-01T07:05:19;27.85;;;15.73;;
37239;SDS011;23130;48.760;9.178;2023-03-01T07:07:44;29.42;;;14.60;;
37239;SDS011;23130;48.760;9.178;2023-03-01T07:10:10;28.95;;;14.43;;
37239;SDS011;23130;48.760;9.178;2023-03-01T07:12:36;25.95;;;15.15;;
37239;SDS011;23130;48.760;9.178;2023-03-01T07:15:02;27.80;;;15.60;;
37239;SDS011;23130;48.760;9.178;2023-03-01T07:17:28;29.80;;;14.40;;
37239;SDS011;23130;48.760;9.178;2023-03-01T07:19:54;26.90;;;14.27;;
37239;SDS011;23130;48.760;9.178;2023-03-01T07:22:20;27.67;;;15.50;;
37239;SDS011;23130;48.760;9.178;2023-03-01T07:24:45;30.33;;;14.77;;
37239;SDS011;23130;48.760;9.178;2023-03-01T07:27:11;30.90;;;15.63;;
37239;SDS011;23130;48.760;9.178;2023-03-01T07:29:39;29.40;;;15.10;;
37239;SDS011;23130;48.760;9.178;2023-03-01T07:32:06;29.73;;;15.35;;
37239;SDS011;23130;48.760;9.178;2023-03-01T07:34:36;32.28;;;15.98;;
37239;SDS011;23130;48.760;9.178;2023-03-01T07:37:01;30.83;;;15.60;;
37239;SDS011;23130;48.760;9.178;2023-03-01T07:39:27;31.65;;;15.77;;
37239;SDS011;23130;48.760;9.178;2023-03-01T07:41:52;30.48;;;16.02;;
37239;SDS011;23130;48.760;9.178;2023-03-01T07:44:19;29.42;;;15.45;;
37239;SDS011;23130;48.760;9.178;2023-03-01T07:46:45;31.20;;;15.88;;
37239;SDS011;23130;48.760;9.178;2023-03-01T07:49:10;28.90;;;15.82;;
37239;SDS011;23130;48.760;9.178;2023-03-01T07:51:36;28.30;;;14.82;;
37239;SDS011;23130;48.760;9.178;2023-03-01T07:54:02;28.83;;;15.55;;
37239;SDS011;23130;48.760;9.178;2023-03-01T07:56:27;29.98;;;16.38;;
37239;SDS011;23130;48.760;9.178;2023-03-01T07:58:53;32.53;;;15.15;;
37239;SDS011;23130;48.760;9.178;2023-03-01T08:01:19;32.78;;;17.17;;
37239;SDS011;23130;48.760;9.178;2023-03-01T08:03:46;30.17;;;16.40;;
37239;SDS011;23130;48.760;9.178;2023-03-01T08:06:12;30.02;;;15.02;;
37239;SDS011;23130;48.760;9.178;2023-03-01T08:08:39;31.58;;;16.52;;
37239;SDS011;23130;48.760;9.178;2023-03-01T08:11:05;27.38;;;15.95;;
37239;SDS011;23130;48.760;9.178;2023-03-01T08:13:32;30.17;;;15.40;;
37239;SDS011;23130;48.760;9.178;2023-03-01T08:16:01;28.90;;;15.90;;
37239;SDS011;23130;48.760;9.178;2023-03-01T08:18:28;30.83;;;14.95;;
37239;SDS011;23130;48.760;9.178;2023-03-01T08:21:01;27.48;;;15.07;;
37239;SDS011;23130;48.760;9.178;2023-03-01T08:23:30;30.73;;;15.95;;
37239;SDS011;23130;48.760;9.178;2023-03-01T08:26:02;31.30;;;16.13;;
37239;SDS011;23130;48.760;9.178;2023-03-01T08:28:43;28.40;;;14.85;;
37239;SDS011;23130;48.760;9.178;2023-03-01T08:33:50;29.88;;;16.15;;
37239;SDS011;23130;48.760;9.178;2023-03-01T08:36:22;28.27;;;15.80;;
37239;SDS011;23130;48.760;9.178;2023-03-01T08:38:49;29.10;;;16.13;;
37239;SDS011;23130;48.760;9.178;2023-03-01T08:41:14;30.92;;;15.65;;
37239;SDS011;23130;48.760;9.178;2023-03-01T08:43:40;32.30;;;18.05;;
37239;SDS011;23130;48.760;9.178;2023-03-01T08:46:06;31.30;;;17.15;;
37239;SDS011;23130;48.760;9.178;2023-03-01T08:48:32;30.58;;;16.38;;
37239;SDS011;23130;48.760;9.178;2023-03-01T08:51:06;30.80;;;16.98;;
37239;SDS011;23130;48.760;9.178;2023-03-01T08:53:39;30.45;;;16.05;;
37239;SDS011;23130;48.760;9.178;2023-03-01T08:56:06;31.23;;;16.70;;
37239;SDS011;23130;48.760;9.178;2023-03-01T08:58:32;31.98;;;15.93;;
37239;SDS011;23130;48.760;9.178;2023-03-01T09:00:57;34.30;;;16.35;;
37239;SDS011;23130;48.760;9.178;2023-03-01T09:03:23;32.72;;;16.05;;
37239;SDS011;23130;48.760;9.178;2023-03-01T09:05:50;31.88;;;16.23;;
37239;SDS011;23130;48.760;9.178;2023-03-01T09:08:17;30.92;;;15.75;;
37239;SDS011;23130;48.760;9.178;2023-03-01T09:10:43;30.33;;;15.55;;
37239;SDS011;23130;48.760;9.178;2023-03-01T09:13:08;27.80;;;15.30;;
37239;SDS011;23130;48.760;9.178;2023-03-01T09:15:36;31.10;;;15.70;;
37239;SDS011;23130;48.760;9.178;2023-03-01T09:18:02;34.15;;;16.70;;
37239;SDS011;23130;48.760;9.178;2023-03-01T09:20:28;32.28;;;16.42;;
37239;SDS011;23130;48.760;9.178;2023-03-01T09:22:55;29.77;;;15.95;;
37239;SDS011;23130;48.760;9.178;2023-03-01T09:25:21;28.30;;;15.68;;
37239;SDS011;23130;48.760;9.178;2023-03-01T09:27:47;27.23;;;15.45;;
37239;SDS011;23130;48.760;9.178;2023-03-01T09:30:15;30.77;;;16.75;;
37239;SDS011;23130;48.760;9.178;2023-03-01T09:32:41;31.88;;;16.58;;
37239;SDS011;23130;48.760;9.178;2023-03-01T09:35:07;30.65;;;16.35;;
37239;SDS011;23130;48.760;9.178;2023-03-01T09:37:34;29.00;;;15.82;;
37239;SDS011;23130;48.760;9.178;2023-03-01T09:40:00;29.08;;;15.82;;
37239;SDS011;23130;48.760;9.178;2023-03-01T09:42:29;28.10;;;15.48;;
37239;SDS011;23130;48.760;9.178;2023-03-01T09:45:06;32.70;;;16.40;;
37239;SDS011;23130;48.760;9.178;2023-03-01T09:50:09;26.65;;;14.25;;
37239;SDS011;23130;48.760;9.178;2023-03-01T09:55:37;30.15;;;14.35;;
37239;SDS011;23130;48.760;9.178;2023-03-01T10:00:54;23.63;;;13.45;;
37239;SDS011;23130;48.760;9.178;2023-03-01T10:06:33;27.02;;;15.30;;
37239;SDS011;23130;48.760;9.178;2023-03-01T10:09:05;29.38;;;15.40;;
37239;SDS011;23130;48.760;9.178;2023-03-01T10:16:50;26.45;;;14.95;;
37239;SDS011;23130;48.760;9.178;2023-03-01T10:19:24;27.77;;;15.88;;
37239;SDS011;23130;48.760;9.178;2023-03-01T10:21:57;31.23;;;14.82;;
37239;SDS011;23130;48.760;9.178;2023-03-01T10:24:27;28.98;;;15.38;;
37239;SDS011;23130;48.760;9.178;2023-03-01T10:27:00;25.88;;;14.82;;
37239;SDS011;23130;48.760;9.178;2023-03-01T10:32:25;26.90;;;14.57;;
37239;SDS011;23130;48.760;9.178;2023-03-01T10:34:51;30.38;;;15.70;;
37239;SDS011;23130;48.760;9.178;2023-03-01T10:37:17;24.23;;;14.77;;
37239;SDS011;23130;48.760;9.178;2023-03-01T10:39:56;23.30;;;14.55;;
37239;SDS011;23130;48.760;9.178;2023-03-01T10:42:34;28.67;;;15.07;;
37239;SDS011;23130;48.760;9.178;2023-03-01T10:48:10;29.08;;;15.38;;
37239;SDS011;23130;48.760;9.178;2023-03-01T10:50:39;24.60;;;14.93;;
37239;SDS011;23130;48.760;9.178;2023-03-01T10:56:02;25.70;;;13.93;;
37239;SDS011;23130;48.760;9.178;2023-03-01T10:58:36;23.83;;;13.90;;
37239;SDS011;23130;48.760;9.178;2023-03-01T11:01:04;24.52;;;14.70;;
37239;SDS011;23130;48.760;9.178;2023-03-01T11:03:38;28.88;;;14.93;;
37239;SDS011;23130;48.760;9.178;2023-03-01T11:06:05;29.40;;;14.48;;
37239;SDS011;23130;48.760;9.178;2023-03-01T11:08:44;28.25;;;15.82;;
37239;SDS011;23130;48.760;9.178;2023-03-01T11:13:37;24.67;;;14.88;;
37239;SDS011;23130;48.760;9.178;2023-03-01T11:16:25;25.92;;;13.85;;
37239;SDS011;23130;48.760;9.178;2023-03-01T11:21:37;24.85;;;14.48;;
37239;SDS011;23130;48.760;9.178;2023-03-01T11:24:13;23.42;;;14.05;;
37239;SDS011;23130;48.760;9.178;2023-03-01T11:26:41;24.67;;;13.32;;
37239;SDS011;23130;48.760;9.178;2023-03-01T11:29:18;24.20;;;13.45;;
37239;SDS011;23130;48.760;9.178;2023-03-01T11:31:58;22.25;;;12.32;;
37239;SDS011;23130;48.760;9.178;2023-03-01T11:34:38;26.50;;;14.30;;
37239;SDS011;23130;48.760;9.178;2023-03-01T11:37:23;23.67;;;13.80;;
37239;SDS011;23130;48.760;9.178;2023-03-01T11:39:59;24.77;;;14.50;;
37239;SDS011;23130;48.760;9.178;2023-03-01T11:42:41;24.60;;;13.00;;
37239;SDS011;23130;48.760;9.178;2023-03-01T11:45:15;23.70;;;14.05;;
37239;SDS011;23130;48.760;9.178;2023-03-01T11:47:48;23.35;;;13.40;;
37239;SDS011;23130;48.760;9.178;2023-03-01T11:50:30;27.10;;;14.48;;
37239;SDS011;23130;48.760;9.178;2023-03-01T11:59:08;23.13;;;13.77;;
37239;SDS011;23130;48.760;9.178;2023-03-01T12:01:42;26.08;;;14.48;;
37239;SDS011;23130;48.760;9.178;2023-03-01T12:04:46;25.73;;;14.02;;
37239;SDS011;23130;48.760;9.178;2023-03-01T12:10:37;22.90;;;12.57;;
37239;SDS011;23130;48.760;9.178;2023-03-01T12:16:23;25.27;;;13.75;;
37239;SDS011;23130;48.760;9.178;2023-03-01T12:19:11;23.33;;;14.57;;
37239;SDS011;23130;48.760;9.178;2023-03-01T12:30:46;24.77;;;14.38;;
37239;SDS011;23130;48.760;9.178;2023-03-01T12:38:32;24.20;;;13.38;;
37239;SDS011;23130;48.760;9.178;2023-03-01T12:49:08;21.25;;;12.40;;
37239;SDS011;23130;48.760;9.178;2023-03-01T12:51:36;22.35;;;12.05;;
37239;SDS011;23130;48.760;9.178;2023-03-01T12:54:16;24.33;;;13.35;;
37239;SDS011;23130;48.760;9.178;2023-03-01T12:56:53;23.90;;;12.60;;
37239;SDS011;23130;48.760;9.178;2023-03-01T13:05:29;18.35;;;11.30;;
37239;SDS011;23130;48.760;9.178;2023-03-01T13:10:48;17.10;;;11.18;;
37239;SDS011;23130;48.760;9.178;2023-03-01T13:13:21;18.38;;;12.25;;
37239;SDS011;23130;48.760;9.178;2023-03-01T13:15:48;20.52;;;12.70;;
37239;SDS011;23130;48.760;9.178;2023-03-01T13:23:09;22.67;;;13.38;;
37239;SDS011;23130;48.760;9.178;2023-03-01T13:25:59;18.83;;;11.50;;
37239;SDS011;23130;48.760;9.178;2023-03-01T13:30:59;23.15;;;12.27;;
37239;SDS011;23130;48.760;9.178;2023-03-01T13:35:52;17.77;;;10.75;;
37239;SDS011;23130;48.760;9.178;2023-03-01T13:39:26;18.75;;;11.73;;
37239;SDS011;23130;48.760;9.178;2023-03-01T13:46:49;20.77;;;12.60;;
37239;SDS011;23130;48.760;9.178;2023-03-01T13:49:29;22.70;;;13.02;;
37239;SDS011;23130;48.760;9.178;2023-03-01T13:52:23;20.88;;;12.63;;
37239;SDS011;23130;48.760;9.178;2023-03-01T13:55:03;24.33;;;14.00;;
37239;SDS011;23130;48.760;9.178;2023-03-01T13:57:35;26.08;;;14.18;;
37239;SDS011;23130;48.760;9.178;2023-03-01T14:00:04;21.90;;;13.75;;
37239;SDS011;23130;48.760;9.178;2023-03-01T14:02:31;20.33;;;13.38;;
37239;SDS011;23130;48.760;9.178;2023-03-01T14:05:00;23.95;;;13.48;;
37239;SDS011;23130;48.760;9.178;2023-03-01T14:07:26;22.70;;;14.25;;
37239;SDS011;23130;48.760;9.178;2023-03-01T14:10:00;26.20;;;14.55;;
37239;SDS011;23130;48.760;9.178;2023-03-01T14:15:19;23.92;;;14.25;;
37239;SDS011;23130;48.760;9.178;2023-03-01T14:20:32;26.27;;;14.77;;
37239;SDS011;23130;48.760;9.178;2023-03-01T14:23:12;25.00;;;15.25;;
37239;SDS011;23130;48.760;9.178;2023-03-01T14:25:46;25.38;;;15.70;;
37239;SDS011;23130;48.760;9.178;2023-03-01T14:28:24;23.60;;;13.77;;
37239;SDS011;23130;48.760;9.178;2023-03-01T14:30:52;27.55;;;16.00;;
37239;SDS011;23130;48.760;9.178;2023-03-01T14:33:26;24.05;;;16.00;;
37239;SDS011;23130;48.760;9.178;2023-03-01T14:36:00;26.05;;;14.82;;
37239;SDS011;23130;48.760;9.178;2023-03-01T14:44:02;24.67;;;14.73;;
37239;SDS011;23130;48.760;9.178;2023-03-01T14:46:35;28.95;;;16.33;;
37239;SDS011;23130;48.760;9.178;2023-03-01T14:49:04;24.45;;;14.88;;
37239;SDS011;23130;48.760;9.178;2023-03-01T14:51:37;25.85;;;14.77;;
37239;SDS011;23130;48.760;9.178;2023-03-01T14:54:05;28.85;;;16.60;;
37239;SDS011;23130;48.760;9.178;2023-03-01T14:56:50;27.10;;;15.63;;
37239;SDS011;23130;48.760;9.178;2023-03-01T14:59:18;22.70;;;14.23;;
37239;SDS011;23130;48.760;9.178;2023-03-01T15:01:48;26.52;;;15.60;;
37239;SDS011;23130;48.760;9.178;2023-03-01T15:04:14;25.00;;;14.75;;
37239;SDS011;23130;48.760;9.178;2023-03-01T15:06:40;25.67;;;13.70;;
37239;SDS011;23130;48.760;9.178;2023-03-01T15:09:06;26.85;;;14.85;;
37239;SDS011;23130;48.760;9.178;2023-03-01T15:11:36;24.48;;;14.07;;
37239;SDS011;23130;48.760;9.178;2023-03-01T15:14:24;23.63;;;14.07;;
37239;SDS011;23130;48.760;9.178;2023-03-01T15:16:53;27.85;;;15.63;;
37239;SDS011;23130;48.760;9.178;2023-03-01T15:19:18;24.13;;;14.20;;
37239;SDS011;23130;48.760;9.178;2023-03-01T15:21:46;25.60;;;14.88;;
37239;SDS011;23130;48.760;9.178;2023-03-01T15:24:20;22.48;;;13.98;;
37239;SDS011;23130;48.760;9.178;2023-03-01T15:26:56;25.35;;;14.90;;
37239;SDS011;23130;48.760;9.178;2023-03-01T15:29:27;27.10;;;15.43;;
37239;SDS011;23130;48.760;9.178;2023-03-01T15:31:56;24.45;;;14.63;;
37239;SDS011;23130;48.760;9.178;2023-03-01T15:34:29;24.77;;;13.73;;
37239;SDS011;23130;48.760;9.178;2023-03-01T15:37:00;29.30;;;15.52;;
37239;SDS011;23130;48.760;9.178;2023-03-01T15:42:03;23.92;;;15.02;;
37239;SDS011;23130;48.760;9.178;2023-03-01T15:44:33;26.83;;;16.20;;
37239;SDS011;23130;48.760;9.178;2023-03-01T15:47:01;25.05;;;15.18;;
37239;SDS011;23130;48.760;9.178;2023-03-01T15:52:17;22.17;;;14.13;;
37239;SDS011;23130;48.760;9.178;2023-03-01T15:55:05;21.83;;;13.73;;
37239;SDS011;23130;48.760;9.178;2023-03-01T15:57:39;24.38;;;14.32;;
37239;SDS011;23130;48.760;9.178;2023-03-01T16:00:05;24.83;;;13.98;;
37239;SDS011;23130;48.760;9.178;2023-03-01T16:02:36;24.27;;;14.20;;
37239;SDS011;23130;48.760;9.178;2023-03-01T16:05:02;23.05;;;13.52;;
37239;SDS011;23130;48.760;9.178;2023-03-01T16:07:28;29.42;;;14.98;;
37239;SDS011;23130;48.760;9.178;2023-03-01T16:09:55;26.95;;;14.68;;
37239;SDS011;23130;48.760;9.178;2023-03-01T16:12:22;23.58;;;13.63;;
37239;SDS011;23130;48.760;9.178;2023-03-01T16:14:49;26.63;;;15.00;;
37239;SDS011;23130;48.760;9.178;2023-03-01T16:17:15;25.48;;;14.27;;
37239;SDS011;23130;48.760;9.178;2023-03-01T16:19:40;24.88;;;13.65;;
37239;SDS011;23130;48.760;9.178;2023-03-01T16:22:06;23.65;;;13.57;;
37239;SDS011;23130;48.760;9.178;2023-03-01T16:24:35;25.42;;;13.70;;
37239;SDS011;23130;48.760;9.178;2023-03-01T16:27:01;24.05;;;13.98;;
37239;SDS011;23130;48.760;9.178;2023-03-01T16:29:27;27.50;;;14.38;;
37239;SDS011;23130;48.760;9.178;2023-03-01T16:31:54;25.48;;;13.82;;
37239;SDS011;23130;48.760;9.178;2023-03-01T16:34:19;22.40;;;13.05;;
37239;SDS011;23130;48.760;9.178;2023-03-01T16:36:46;23.67;;;12.88;;
37239;SDS011;23130;48.760;9.178;2023-03-01T16:39:12;22.67;;;13.15;;
37239;SDS011;23130;48.760;9.178;2023-03-01T16:41:38;24.25;;;13.77;;